Time;durP1;ratioP1;P1;durP2;ratioP2;P2;SDS_P1;SDS_P2;PMS_P1;PMS_P2;Temp;Humidity;BMP_temperature;BMP_pressure;BME280_temperature;BME280_humidity;BME280_pressure;Samples;Min_cycle;Max_cycle;Signal;HPM_P1;HPM_P2
2023/12/31 00:02:05;;;;;;;4.47;4.07;;;8.70;1.00;;;;;;5094707;28;20177;-62
2023/12/31 00:04:30;;;;;;;4.63;4.23;;;8.80;1.00;;;;;;5079447;28;20188;-62
2023/12/31 00:06:56;;;;;;;4.67;4.20;;;8.80;99.90;;;;;;5088731;28;20214;-62
2023/12/31 00:09:22;;;;;;;4.30;4.07;;;8.80;38.60;;;;;;5088813;28;20261;-62
2023/12/31 00:11:48;;;;;;;4.50;4.20;;;8.80;99.90;;;;;;5079307;28;20276;-62
2023/12/31 00:14:13;;;;;;;4.65;4.35;;;8.80;99.90;;;;;;5083575;28;20232;-63
2023/12/31 00:16:39;;;;;;;4.93;4.53;;;8.80;99.90;;;;;;5059294;28;20212;-62
2023/12/31 00:19:05;;;;;;;4.67;4.27;;;8.90;99.90;;;;;;5094145;28;20181;-62
2023/12/31 00:21:30;;;;;;;5.93;4.60;;;8.90;99.90;;;;;;5083315;28;20174;-62
2023/12/31 00:23:56;;;;;;;5.27;4.77;;;8.90;99.90;;;;;;5066874;28;20388;-62
2023/12/31 00:26:22;;;;;;;5.73;4.50;;;8.90;99.90;;;;;;5075984;28;20209;-63
2023/12/31 00:28:48;;;;;;;5.23;4.73;;;8.90;99.90;;;;;;5087263;28;20201;-62
2023/12/31 00:31:13;;;;;;;6.03;4.87;;;8.90;99.90;;;;;;5073395;28;20553;-61
2023/12/31 00:33:39;;;;;;;5.13;4.70;;;9.00;37.60;;;;;;5085596;28;20650;-62
2023/12/31 00:36:05;;;;;;;6.00;4.70;;;8.90;1.00;;;;;;5081215;28;20610;-62
2023/12/31 00:38:31;;;;;;;5.70;4.77;;;8.90;1.00;;;;;;5088927;28;20520;-63
2023/12/31 00:40:56;;;;;;;5.20;4.80;;;8.90;1.00;;;;;;5081366;28;20224;-62
2023/12/31 00:43:22;;;;;;;6.70;4.63;;;8.90;1.00;;;;;;5089620;28;20186;-61
2023/12/31 00:45:48;;;;;;;6.37;5.10;;;8.90;99.90;;;;;;5075733;28;20288;-62
2023/12/31 00:48:14;;;;;;;5.83;4.83;;;8.90;1.00;;;;;;5093453;28;20165;-61
2023/12/31 00:50:39;;;;;;;5.43;5.00;;;8.90;99.90;;;;;;5088461;28;20178;-62
2023/12/31 00:53:05;;;;;;;5.77;5.27;;;8.90;99.90;;;;;;5075529;28;20184;-62
2023/12/31 00:55:31;;;;;;;5.50;5.00;;;8.90;99.90;;;;;;5089323;28;20227;-62
2023/12/31 00:57:57;;;;;;;5.80;4.60;;;8.80;1.00;;;;;;5075921;28;20216;-62
2023/12/31 01:00:23;;;;;;;5.57;5.07;;;8.80;1.00;;;;;;5080333;28;20664;-62
2023/12/31 01:02:48;;;;;;;5.80;5.30;;;8.90;1.00;;;;;;5080744;28;20642;-61
2023/12/31 01:05:14;;;;;;;5.90;5.30;;;8.80;1.00;;;;;;5079517;28;20177;-63
2023/12/31 01:07:40;;;;;;;5.60;5.10;;;8.90;1.00;;;;;;5090230;28;20212;-62
2023/12/31 01:10:06;;;;;;;5.70;5.20;;;8.90;1.00;;;;;;5079858;28;20185;-63
2023/12/31 01:12:33;;;;;;;5.97;5.40;;;8.80;1.00;;;;;;5080250;28;20260;-62
2023/12/31 01:14:59;;;;;;;5.63;5.13;;;8.80;1.00;;;;;;5100069;28;20590;-62
2023/12/31 01:17:24;;;;;;;5.67;5.07;;;9.00;92.30;;;;;;5099666;28;20297;-62
2023/12/31 01:19:50;;;;;;;7.00;4.80;;;8.90;99.90;;;;;;5093698;28;20180;-62
2023/12/31 01:22:16;;;;;;;5.50;5.00;;;9.00;1.00;;;;;;5087647;28;20177;-62
2023/12/31 01:24:42;;;;;;;5.17;4.77;;;9.00;99.90;;;;;;5087982;28;20182;-62
2023/12/31 01:27:07;;;;;;;5.07;4.67;;;9.00;1.00;;;;;;5091615;28;20218;-62
2023/12/31 01:29:37;;;;;;;5.20;4.70;;;9.00;99.90;;;;;;5087776;28;20172;-61
2023/12/31 01:32:03;;;;;;;5.93;5.33;;;9.10;99.90;;;;;;5088902;28;20169;-62
2023/12/31 01:34:29;;;;;;;5.87;5.10;;;9.10;99.90;;;;;;5090469;28;20594;-62
2023/12/31 01:36:55;;;;;;;5.77;5.20;;;9.10;1.00;;;;;;5087147;28;20200;-62
2023/12/31 01:39:20;;;;;;;5.30;4.80;;;9.00;1.00;;;;;;5084868;28;20178;-62
2023/12/31 01:41:46;;;;;;;6.00;5.13;;;8.90;99.90;;;;;;5089681;28;20248;-62
2023/12/31 01:44:12;;;;;;;4.97;4.63;;;8.90;1.00;;;;;;5079474;28;20225;-62
2023/12/31 01:46:38;;;;;;;5.40;5.00;;;8.90;1.00;;;;;;5097494;28;20209;-62
2023/12/31 01:49:04;;;;;;;5.63;5.03;;;8.90;99.90;;;;;;5090260;28;20170;-62
2023/12/31 01:51:32;;;;;;;4.83;4.43;;;8.90;99.90;;;;;;5097326;28;20173;-62
2023/12/31 01:54:01;;;;;;;5.67;5.17;;;8.90;99.90;;;;;;5089823;28;20173;-62
2023/12/31 01:56:28;;;;;;;5.43;4.60;;;8.90;99.90;;;;;;5088058;28;20201;-62
2023/12/31 01:58:56;;;;;;;5.17;4.77;;;8.90;99.90;;;;;;5088682;28;20633;-62
2023/12/31 02:01:22;;;;;;;4.83;4.53;;;8.90;65.80;;;;;;5089848;28;20211;-63
2023/12/31 02:03:48;;;;;;;5.23;4.70;;;8.90;1.00;;;;;;5088264;28;20174;-62
2023/12/31 02:06:14;;;;;;;5.00;4.60;;;8.90;1.00;;;;;;5088306;28;20223;-62
2023/12/31 02:08:40;;;;;;;8.37;5.00;;;8.90;1.00;;;;;;5081778;28;20183;-62
2023/12/31 02:11:08;;;;;;;7.07;4.60;;;8.90;1.00;;;;;;5085840;28;20174;-61
2023/12/31 02:13:34;;;;;;;5.30;4.80;;;8.90;1.00;;;;;;5078992;28;20543;-63
2023/12/31 02:16:00;;;;;;;5.00;4.60;;;8.90;1.00;;;;;;5084177;28;20201;-62
2023/12/31 02:18:26;;;;;;;4.97;4.47;;;8.90;99.90;;;;;;5085571;28;20630;-62
2023/12/31 02:20:51;;;;;;;5.17;4.43;;;9.00;99.90;;;;;;5086611;28;20181;-62
2023/12/31 02:23:17;;;;;;;5.33;4.83;;;9.00;99.90;;;;;;5091615;28;20181;-62
2023/12/31 02:25:47;;;;;;;4.80;4.40;;;8.90;99.90;;;;;;5084551;28;20733;-62
2023/12/31 02:28:13;;;;;;;4.80;4.37;;;9.00;99.90;;;;;;5083555;28;20264;-62
2023/12/31 02:30:39;;;;;;;6.40;4.53;;;9.00;99.90;;;;;;5086306;28;20548;-62
2023/12/31 02:33:05;;;;;;;4.57;4.27;;;9.00;99.90;;;;;;5077102;28;20185;-61
2023/12/31 02:35:31;;;;;;;5.30;4.53;;;9.00;15.40;;;;;;5089406;28;20178;-62
2023/12/31 02:37:57;;;;;;;4.80;4.27;;;9.10;1.00;;;;;;5084565;28;20263;-63
2023/12/31 02:40:22;;;;;;;4.67;4.27;;;9.00;1.00;;;;;;5085742;28;20169;-62
2023/12/31 02:42:48;;;;;;;4.50;4.20;;;9.00;1.00;;;;;;5077332;28;20209;-62
2023/12/31 02:45:14;;;;;;;4.67;4.30;;;9.00;1.00;;;;;;5095489;28;20211;-62
2023/12/31 02:47:39;;;;;;;5.60;4.60;;;9.00;1.00;;;;;;5088894;28;20221;-62
2023/12/31 02:50:06;;;;;;;4.50;4.10;;;9.00;1.00;;;;;;5074985;28;20186;-62
2023/12/31 02:52:32;;;;;;;5.13;4.20;;;9.10;1.00;;;;;;5088035;28;20268;-62
2023/12/31 02:54:57;;;;;;;4.33;4.03;;;9.10;1.00;;;;;;5083378;28;20205;-62
2023/12/31 02:57:24;;;;;;;4.77;4.20;;;9.10;1.00;;;;;;5090780;28;20283;-62
2023/12/31 02:59:50;;;;;;;6.63;4.27;;;9.10;1.00;;;;;;5084976;28;20188;-62
2023/12/31 03:02:16;;;;;;;4.87;4.47;;;9.20;1.00;;;;;;5085220;28;20265;-62
2023/12/31 03:04:41;;;;;;;5.23;4.63;;;9.20;1.00;;;;;;5077522;28;20668;-61
2023/12/31 03:07:07;;;;;;;4.40;4.10;;;9.20;1.00;;;;;;5087525;28;20255;-62
2023/12/31 03:09:33;;;;;;;5.03;4.50;;;9.10;1.00;;;;;;5089624;28;20272;-63
2023/12/31 03:11:59;;;;;;;4.97;4.47;;;9.10;1.00;;;;;;5079733;28;20649;-62
2023/12/31 03:14:25;;;;;;;4.80;4.40;;;9.10;1.00;;;;;;5095024;28;20185;-62
2023/12/31 03:16:50;;;;;;;4.60;4.20;;;9.10;1.00;;;;;;5088622;28;20190;-62
2023/12/31 03:19:18;;;;;;;4.57;4.27;;;9.10;1.00;;;;;;5083395;28;20737;-62
2023/12/31 03:21:44;;;;;;;5.00;4.60;;;9.00;15.70;;;;;;5089758;28;20201;-62
2023/12/31 03:24:10;;;;;;;5.50;4.70;;;8.90;99.90;;;;;;5091267;28;20276;-63
2023/12/31 03:26:36;;;;;;;5.03;4.40;;;8.90;99.90;;;;;;5089472;28;20204;-62
2023/12/31 03:29:02;;;;;;;5.07;4.77;;;8.90;99.90;;;;;;5078941;28;20170;-62
2023/12/31 03:31:28;;;;;;;4.87;4.47;;;8.90;99.90;;;;;;5078112;28;20189;-62
2023/12/31 03:33:54;;;;;;;7.23;4.80;;;8.90;99.90;;;;;;5085180;28;20186;-62
2023/12/31 03:36:24;;;;;;;5.03;4.63;;;8.90;99.90;;;;;;5074036;28;20213;-62
2023/12/31 03:38:50;;;;;;;4.70;4.30;;;8.90;99.90;;;;;;5083001;28;20204;-62
2023/12/31 03:41:15;;;;;;;4.67;4.27;;;8.90;99.90;;;;;;5079404;28;20263;-62
2023/12/31 03:43:41;;;;;;;5.27;4.87;;;8.80;99.90;;;;;;5089602;28;20214;-62
2023/12/31 03:46:07;;;;;;;5.03;4.60;;;8.90;99.90;;;;;;5081803;28;20204;-62
2023/12/31 03:48:33;;;;;;;5.20;4.70;;;8.80;99.90;;;;;;5094494;28;20162;-62
2023/12/31 03:50:58;;;;;;;4.90;4.50;;;8.80;99.90;;;;;;5087888;28;20280;-62
2023/12/31 03:53:24;;;;;;;5.30;4.83;;;8.80;1.00;;;;;;5082446;28;20216;-63
2023/12/31 03:55:50;;;;;;;4.80;4.40;;;8.80;99.90;;;;;;5093968;28;20207;-62
2023/12/31 03:58:15;;;;;;;5.40;4.90;;;8.80;99.90;;;;;;5082159;28;20553;-62
2023/12/31 04:00:41;;;;;;;5.37;4.60;;;8.80;99.90;;;;;;5084814;28;20692;-62
2023/12/31 04:03:07;;;;;;;5.00;4.60;;;8.70;1.00;;;;;;5083672;28;20173;-63
2023/12/31 04:05:33;;;;;;;5.00;4.60;;;8.70;1.00;;;;;;5082526;28;20662;-62
2023/12/31 04:07:59;;;;;;;5.23;4.30;;;8.70;1.00;;;;;;5084457;28;20620;-62
2023/12/31 04:10:25;;;;;;;4.87;4.37;;;8.60;1.00;;;;;;5091945;28;20186;-62
2023/12/31 04:12:51;;;;;;;4.77;4.23;;;8.60;99.90;;;;;;5073705;28;20249;-62
2023/12/31 04:15:16;;;;;;;4.70;4.30;;;8.60;1.00;;;;;;5090431;28;20229;-62
2023/12/31 04:17:42;;;;;;;5.00;4.60;;;8.50;1.00;;;;;;5091681;28;20284;-62
2023/12/31 04:20:09;;;;;;;5.20;4.80;;;8.50;1.00;;;;;;5082403;28;20652;-62
2023/12/31 04:22:35;;;;;;;4.97;4.50;;;8.50;1.00;;;;;;5081063;28;20535;-62
2023/12/31 04:25:01;;;;;;;5.13;4.73;;;8.50;99.90;;;;;;5091090;28;20180;-63
2023/12/31 04:27:27;;;;;;;5.87;4.57;;;8.50;1.00;;;;;;5078287;28;20695;-63
2023/12/31 04:29:53;;;;;;;4.93;4.53;;;8.50;1.00;;;;;;5083667;28;20208;-63
2023/12/31 04:32:19;;;;;;;4.50;4.20;;;8.50;35.30;;;;;;5091257;28;20264;-63
2023/12/31 04:34:44;;;;;;;4.60;4.30;;;8.50;86.90;;;;;;5078564;28;20169;-62
2023/12/31 04:37:10;;;;;;;5.27;4.77;;;8.50;99.90;;;;;;5088336;28;20712;-63
2023/12/31 04:39:36;;;;;;;5.70;4.57;;;8.50;99.90;;;;;;5081107;28;20173;-63
2023/12/31 04:42:03;;;;;;;4.83;4.43;;;8.50;1.00;;;;;;5086181;28;20191;-62
2023/12/31 04:44:29;;;;;;;4.93;4.53;;;8.50;99.90;;;;;;5093628;28;20240;-62
2023/12/31 04:46:54;;;;;;;4.27;4.07;;;8.50;1.00;;;;;;5079681;28;20617;-62
2023/12/31 04:49:20;;;;;;;4.83;4.50;;;8.50;1.00;;;;;;5070122;28;20198;-63
2023/12/31 04:51:46;;;;;;;4.90;4.50;;;8.50;99.90;;;;;;5085662;28;20253;-62
2023/12/31 04:54:12;;;;;;;5.43;4.73;;;8.40;99.90;;;;;;5082191;28;20207;-62
2023/12/31 04:56:38;;;;;;;4.50;4.10;;;8.40;1.00;;;;;;5082459;28;20238;-63
2023/12/31 04:59:04;;;;;;;4.50;4.10;;;8.40;99.90;;;;;;5086731;28;20209;-62
2023/12/31 05:01:32;;;;;;;4.70;4.37;;;8.50;53.40;;;;;;5086295;28;20227;-62
2023/12/31 05:03:59;;;;;;;5.03;4.30;;;8.50;1.00;;;;;;5086997;28;20553;-62
2023/12/31 05:06:25;;;;;;;4.47;4.17;;;8.60;99.90;;;;;;5092707;28;20704;-62
2023/12/31 05:08:52;;;;;;;4.70;4.30;;;8.60;99.90;;;;;;5080468;28;20178;-63
2023/12/31 05:11:18;;;;;;;4.37;4.00;;;8.70;98.00;;;;;;5085478;28;20669;-62
2023/12/31 05:13:44;;;;;;;5.17;4.17;;;8.70;44.50;;;;;;5081009;28;20177;-62
2023/12/31 05:16:15;;;;;;;5.07;4.60;;;8.70;1.00;;;;;;5092900;28;20212;-62
2023/12/31 05:18:50;;;;;;;4.87;4.43;;;8.70;1.00;;;;;;5081262;28;20174;-62
2023/12/31 05:21:17;;;;;;;4.77;4.10;;;8.80;1.00;;;;;;5081532;28;20546;-62
2023/12/31 05:23:42;;;;;;;4.57;4.20;;;8.80;1.00;;;;;;5093115;28;20763;-62
2023/12/31 05:26:08;;;;;;;4.30;4.00;;;8.80;1.00;;;;;;5073535;28;20300;-62
2023/12/31 05:28:34;;;;;;;5.30;4.35;;;8.90;1.00;;;;;;5088271;28;20196;-61
2023/12/31 05:31:00;;;;;;;4.30;3.90;;;8.90;99.90;;;;;;5073769;28;20218;-62
2023/12/31 05:33:25;;;;;;;4.50;4.20;;;9.00;99.90;;;;;;5082477;28;20177;-62
2023/12/31 05:35:51;;;;;;;4.20;3.90;;;9.00;99.90;;;;;;5083086;28;20178;-62
2023/12/31 05:38:17;;;;;;;4.40;4.00;;;9.00;99.90;;;;;;5081239;28;20635;-62
2023/12/31 05:40:43;;;;;;;4.60;4.20;;;9.00;99.90;;;;;;5084001;28;20178;-62
2023/12/31 05:43:10;;;;;;;4.13;3.83;;;9.10;99.90;;;;;;5059519;28;20236;-62
2023/12/31 05:45:37;;;;;;;4.70;3.97;;;9.20;99.90;;;;;;5089309;28;20189;-62
2023/12/31 05:48:03;;;;;;;4.93;4.50;;;9.20;99.90;;;;;;5085947;28;20190;-62
2023/12/31 05:50:28;;;;;;;4.20;3.90;;;9.20;99.90;;;;;;5082822;28;20243;-62
2023/12/31 05:52:54;;;;;;;4.23;4.00;;;9.30;99.90;;;;;;5085737;28;20177;-62
2023/12/31 05:55:20;;;;;;;4.50;4.17;;;9.30;91.50;;;;;;5093242;28;20181;-62
2023/12/31 05:57:46;;;;;;;4.50;4.10;;;9.30;63.30;;;;;;5076492;28;20229;-62
2023/12/31 06:00:13;;;;;;;4.37;4.07;;;9.50;1.00;;;;;;5090504;28;20184;-62
2023/12/31 06:02:40;;;;;;;4.83;4.20;;;9.50;1.00;;;;;;5086763;28;20528;-62
2023/12/31 06:05:06;;;;;;;4.60;4.20;;;9.60;1.00;;;;;;5088556;28;20230;-61
2023/12/31 06:07:32;;;;;;;4.63;4.33;;;9.60;1.00;;;;;;5082893;28;20214;-62
2023/12/31 06:09:58;;;;;;;4.40;4.00;;;9.60;1.00;;;;;;5096357;28;20653;-62
2023/12/31 06:12:24;;;;;;;4.87;4.20;;;9.60;1.00;;;;;;5078244;28;20624;-62
2023/12/31 06:14:50;;;;;;;4.37;4.07;;;9.60;1.00;;;;;;5096480;28;20242;-62
2023/12/31 06:17:16;;;;;;;5.20;4.00;;;9.50;1.00;;;;;;5096215;28;20562;-62
2023/12/31 06:19:42;;;;;;;4.55;4.25;;;9.50;1.00;;;;;;5097062;28;20182;-62
2023/12/31 06:22:07;;;;;;;8.90;4.60;;;9.40;1.00;;;;;;5096003;28;20274;-62
2023/12/31 06:24:33;;;;;;;4.47;4.17;;;9.40;1.00;;;;;;5096089;28;20187;-62
2023/12/31 06:26:59;;;;;;;4.70;4.30;;;9.40;1.00;;;;;;5095931;28;20217;-62
2023/12/31 06:29:25;;;;;;;4.30;4.00;;;9.30;1.00;;;;;;5092728;28;20202;-62
2023/12/31 06:31:51;;;;;;;4.70;4.30;;;9.30;54.30;;;;;;5086366;28;20165;-62
2023/12/31 06:34:18;;;;;;;4.80;4.30;;;9.30;27.90;;;;;;5085373;28;20177;-62
2023/12/31 06:36:44;;;;;;;4.10;3.80;;;9.30;1.00;;;;;;5084380;28;20272;-62
2023/12/31 06:39:10;;;;;;;4.68;4.20;;;9.30;33.50;;;;;;5083905;28;20184;-62
2023/12/31 06:41:36;;;;;;;5.00;4.23;;;9.40;1.00;;;;;;5091696;28;20554;-62
2023/12/31 06:44:02;;;;;;;4.87;4.47;;;9.30;1.00;;;;;;5081644;28;20237;-62
2023/12/31 06:46:28;;;;;;;6.47;4.30;;;9.30;1.00;;;;;;5094151;28;20712;-62
2023/12/31 06:48:55;;;;;;;4.77;4.30;;;9.30;1.70;;;;;;5086136;28;20182;-62
2023/12/31 06:51:20;;;;;;;7.37;4.33;;;9.40;1.00;;;;;;5086418;28;20200;-62
2023/12/31 06:53:46;;;;;;;4.53;4.20;;;9.40;1.00;;;;;;5091959;28;20260;-62
2023/12/31 06:56:12;;;;;;;4.67;4.27;;;9.40;1.00;;;;;;5082094;28;20814;-62
2023/12/31 06:58:38;;;;;;;5.00;4.57;;;9.30;1.00;;;;;;5079927;28;20537;-62
2023/12/31 07:01:05;;;;;;;4.93;4.53;;;9.30;1.00;;;;;;5081146;28;20242;-63
2023/12/31 07:03:31;;;;;;;6.43;4.73;;;9.40;1.00;;;;;;5084043;28;20190;-62
2023/12/31 07:05:57;;;;;;;4.50;4.20;;;9.40;1.00;;;;;;5087106;28;20216;-62
2023/12/31 07:08:23;;;;;;;4.97;4.50;;;9.40;1.00;;;;;;5082016;28;20244;-62
2023/12/31 07:10:50;;;;;;;5.03;4.53;;;9.40;1.00;;;;;;5092712;28;20185;-62
2023/12/31 07:13:16;;;;;;;4.97;4.50;;;9.40;1.00;;;;;;5080106;28;20182;-62
2023/12/31 07:15:43;;;;;;;4.73;4.33;;;9.30;1.00;;;;;;5087104;28;20665;-62
2023/12/31 07:18:09;;;;;;;5.30;4.90;;;9.30;1.00;;;;;;5094957;28;20546;-63
2023/12/31 07:20:35;;;;;;;4.73;4.33;;;9.20;1.00;;;;;;5078297;28;20238;-62
2023/12/31 07:23:01;;;;;;;4.93;4.43;;;9.20;1.00;;;;;;5083335;28;20252;-62
2023/12/31 07:25:28;;;;;;;4.90;4.40;;;9.30;1.00;;;;;;5074707;28;20529;-62
2023/12/31 07:27:55;;;;;;;4.87;4.37;;;9.30;1.00;;;;;;5085833;28;20273;-63
2023/12/31 07:30:20;;;;;;;4.97;4.47;;;9.30;1.00;;;;;;5077427;28;20185;-62
2023/12/31 07:32:46;;;;;;;4.70;4.33;;;9.20;1.00;;;;;;5080425;28;20556;-62
2023/12/31 07:35:12;;;;;;;4.80;4.27;;;9.30;1.00;;;;;;5077057;28;20170;-62
2023/12/31 07:37:39;;;;;;;5.20;4.63;;;9.40;1.00;;;;;;5081722;28;20296;-63
2023/12/31 07:40:09;;;;;;;4.90;4.50;;;9.40;1.00;;;;;;5080952;28;20264;-62
2023/12/31 07:42:37;;;;;;;4.83;4.50;;;9.40;1.00;;;;;;5083405;28;20646;-62
2023/12/31 07:45:04;;;;;;;5.05;4.50;;;9.40;1.00;;;;;;5088066;28;20184;-62
2023/12/31 07:47:31;;;;;;;4.40;4.10;;;9.40;1.00;;;;;;5085883;28;20263;-62
2023/12/31 07:49:57;;;;;;;4.75;4.20;;;9.40;1.00;;;;;;5087202;28;20192;-62
2023/12/31 07:52:25;;;;;;;4.67;4.27;;;9.40;1.00;;;;;;5091926;28;20177;-62
2023/12/31 07:54:51;;;;;;;5.00;4.60;;;9.40;1.00;;;;;;5077450;28;20260;-62
2023/12/31 07:57:17;;;;;;;7.00;4.57;;;9.40;1.00;;;;;;5084390;28;20217;-63
2023/12/31 07:59:43;;;;;;;4.93;4.43;;;9.50;1.00;;;;;;5079643;28;20182;-61
2023/12/31 08:02:09;;;;;;;5.28;4.88;;;9.50;1.00;;;;;;5084337;28;20181;-62
2023/12/31 08:04:35;;;;;;;4.70;4.30;;;9.50;1.00;;;;;;5083800;28;20178;-62
2023/12/31 08:07:01;;;;;;;4.50;4.10;;;9.50;1.00;;;;;;5082277;28;20256;-61
2023/12/31 08:09:26;;;;;;;4.73;4.33;;;9.50;1.00;;;;;;5082631;28;20161;-62
2023/12/31 08:11:52;;;;;;;4.80;4.40;;;9.50;1.00;;;;;;5088587;28;20270;-62
2023/12/31 08:14:18;;;;;;;6.43;4.70;;;9.50;1.00;;;;;;5073677;28;20193;-63
2023/12/31 08:16:44;;;;;;;4.75;4.35;;;9.50;1.00;;;;;;5083168;28;20216;-62
2023/12/31 08:19:09;;;;;;;4.80;4.40;;;9.60;1.00;;;;;;5085395;28;20194;-61
2023/12/31 08:21:35;;;;;;;4.57;4.17;;;9.60;1.00;;;;;;5083756;28;20189;-62
2023/12/31 08:24:01;;;;;;;6.47;4.80;;;9.60;1.00;;;;;;5083593;28;20182;-61
2023/12/31 08:26:27;;;;;;;6.40;4.32;;;9.60;1.00;;;;;;5085747;28;20217;-62
2023/12/31 08:28:52;;;;;;;5.80;4.60;;;9.70;1.00;;;;;;5084543;28;20181;-62
2023/12/31 08:31:18;;;;;;;4.90;4.50;;;9.70;1.00;;;;;;5083737;28;20200;-62
2023/12/31 08:33:44;;;;;;;5.30;4.90;;;9.80;1.00;;;;;;5088388;28;20170;-62
2023/12/31 08:36:10;;;;;;;5.60;4.93;;;9.80;1.00;;;;;;5078358;28;20208;-62
2023/12/31 08:38:36;;;;;;;5.60;5.05;;;9.70;1.00;;;;;;5073693;28;20650;-62
2023/12/31 08:41:01;;;;;;;5.03;4.57;;;9.70;1.00;;;;;;5073677;28;20650;-62
2023/12/31 08:43:28;;;;;;;5.27;4.70;;;9.70;1.00;;;;;;5073892;28;20597;-63
2023/12/31 08:45:54;;;;;;;6.43;4.40;;;9.80;1.00;;;;;;5087426;28;20189;-62
2023/12/31 08:48:20;;;;;;;5.75;4.68;;;9.70;1.00;;;;;;5094089;28;20176;-62
2023/12/31 08:50:46;;;;;;;4.38;4.05;;;9.80;1.00;;;;;;5090034;28;20223;-62
2023/12/31 08:53:12;;;;;;;4.93;4.50;;;9.80;1.00;;;;;;5087510;28;20669;-62
2023/12/31 08:55:38;;;;;;;4.82;4.43;;;9.80;1.00;;;;;;5093310;28;20181;-62
2023/12/31 08:58:04;;;;;;;4.95;4.20;;;9.80;1.00;;;;;;5093121;28;20212;-62
2023/12/31 09:00:33;;;;;;;5.00;4.60;;;9.80;1.00;;;;;;5093308;28;20195;-62
2023/12/31 09:02:59;;;;;;;5.15;4.68;;;9.80;1.00;;;;;;5093224;28;20181;-62
2023/12/31 09:05:26;;;;;;;4.57;4.18;;;9.90;1.00;;;;;;5075133;28;20278;-62
2023/12/31 09:07:52;;;;;;;4.70;4.30;;;9.90;1.00;;;;;;5092885;28;20220;-62
2023/12/31 09:10:18;;;;;;;5.03;4.63;;;9.90;1.00;;;;;;5093503;28;20176;-62
2023/12/31 09:12:43;;;;;;;5.88;4.90;;;9.90;1.00;;;;;;5093196;28;20607;-62
2023/12/31 09:15:09;;;;;;;4.97;4.47;;;10.00;1.00;;;;;;5093113;28;20264;-61
2023/12/31 09:17:35;;;;;;;4.83;4.43;;;10.10;1.00;;;;;;5093029;28;20233;-62
2023/12/31 09:20:06;;;;;;;4.90;4.50;;;10.10;1.00;;;;;;5093392;28;20661;-61
2023/12/31 09:22:33;;;;;;;5.15;4.72;;;10.20;1.00;;;;;;5092843;28;20584;-61
2023/12/31 09:24:58;;;;;;;4.95;4.55;;;10.20;1.00;;;;;;5092980;28;20227;-61
2023/12/31 09:27:24;;;;;;;6.00;4.88;;;10.20;1.00;;;;;;5093055;28;20217;-62
2023/12/31 09:29:50;;;;;;;5.38;4.65;;;10.20;1.00;;;;;;5093611;28;20160;-62
2023/12/31 09:32:16;;;;;;;5.30;4.80;;;10.20;1.00;;;;;;5092718;28;20177;-62
2023/12/31 09:34:42;;;;;;;5.05;4.60;;;10.20;1.00;;;;;;5096117;28;20554;-61
2023/12/31 09:37:09;;;;;;;5.43;4.55;;;10.20;1.00;;;;;;5096704;28;20205;-62
2023/12/31 09:39:34;;;;;;;5.20;4.70;;;10.30;1.00;;;;;;5096518;28;20178;-62
2023/12/31 09:42:08;;;;;;;5.45;4.95;;;10.30;1.00;;;;;;5085523;28;20169;-63
2023/12/31 09:44:35;;;;;;;5.35;4.70;;;10.30;1.00;;;;;;5087930;28;20231;-61
2023/12/31 09:47:09;;;;;;;6.65;5.43;;;10.30;1.00;;;;;;5097491;28;20209;-62
2023/12/31 09:49:36;;;;;;;5.80;5.10;;;10.30;1.00;;;;;;5082005;28;20189;-61
2023/12/31 09:52:09;;;;;;;5.57;4.60;;;10.30;1.00;;;;;;5093923;28;20216;-61
2023/12/31 09:54:38;;;;;;;5.85;5.13;;;10.30;1.00;;;;;;5076203;28;20182;-62
2023/12/31 09:57:05;;;;;;;5.53;4.63;;;10.30;1.00;;;;;;5076367;28;20216;-61
2023/12/31 09:59:31;;;;;;;6.10;5.50;;;10.30;1.00;;;;;;5076183;28;20188;-61
2023/12/31 10:02:04;;;;;;;5.65;4.90;;;10.30;1.00;;;;;;5076186;28;20661;-61
2023/12/31 10:04:31;;;;;;;5.35;4.85;;;10.30;1.00;;;;;;5076381;28;20189;-62
2023/12/31 10:06:57;;;;;;;8.07;5.40;;;10.40;1.00;;;;;;5075625;28;20201;-62
2023/12/31 10:09:33;;;;;;;7.50;5.63;;;10.40;1.00;;;;;;5076067;28;20261;-62
2023/12/31 10:12:00;;;;;;;5.40;4.90;;;10.40;1.00;;;;;;5076056;28;20162;-62
2023/12/31 10:14:26;;;;;;;5.57;4.93;;;10.40;1.00;;;;;;5084427;28;20607;-62
2023/12/31 10:16:52;;;;;;;5.60;5.10;;;10.50;1.00;;;;;;5096110;28;20205;-63
2023/12/31 10:19:17;;;;;;;5.38;4.65;;;10.50;1.00;;;;;;5096222;28;20181;-61
2023/12/31 10:21:43;;;;;;;6.13;4.60;;;10.60;1.00;;;;;;5095767;28;20184;-62
2023/12/31 10:24:10;;;;;;;5.97;5.00;;;10.60;1.00;;;;;;5096075;28;20181;-61
2023/12/31 10:26:36;;;;;;;5.55;5.10;;;10.60;1.00;;;;;;5095905;28;20201;-62
2023/12/31 10:29:04;;;;;;;5.30;4.82;;;10.60;1.00;;;;;;5095945;28;20169;-62
2023/12/31 10:31:31;;;;;;;5.60;5.10;;;10.70;1.00;;;;;;5095811;28;20197;-61
2023/12/31 10:34:11;;;;;;;5.85;5.22;;;10.70;1.00;;;;;;5095806;28;20641;-62
2023/12/31 10:36:37;;;;;;;6.38;5.78;;;10.70;1.00;;;;;;5077386;28;20611;-61
2023/12/31 10:39:03;;;;;;;5.40;4.88;;;10.80;1.00;;;;;;5095914;28;20246;-62
2023/12/31 10:41:34;;;;;;;5.85;5.25;;;10.90;1.00;;;;;;5094836;28;20177;-62
2023/12/31 10:44:04;;;;;;;5.70;5.20;;;11.00;1.00;;;;;;5088352;28;20545;-61
2023/12/31 10:46:32;;;;;;;5.57;5.07;;;11.10;1.00;;;;;;5074111;28;20630;-62
2023/12/31 10:49:05;;;;;;;6.07;5.40;;;11.20;1.00;;;;;;5075787;28;20170;-62
2023/12/31 10:51:35;;;;;;;6.00;5.03;;;11.30;1.00;;;;;;5057256;28;20174;-62
2023/12/31 10:54:21;;;;;;;5.55;5.03;;;11.40;1.00;;;;;;5075189;28;20635;-63
2023/12/31 10:56:48;;;;;;;6.95;5.22;;;11.50;1.00;;;;;;5075448;28;20225;-62
2023/12/31 10:59:16;;;;;;;5.78;5.15;;;11.40;1.00;;;;;;5075202;28;20720;-63
2023/12/31 11:01:44;;;;;;;5.80;5.20;;;11.40;1.00;;;;;;5075724;28;20186;-62
2023/12/31 11:04:11;;;;;;;5.80;5.20;;;11.30;1.00;;;;;;5075418;28;20561;-62
2023/12/31 11:06:40;;;;;;;6.15;5.47;;;11.20;1.00;;;;;;5075103;28;20202;-62
2023/12/31 11:09:08;;;;;;;5.78;5.10;;;11.10;1.00;;;;;;5075458;28;20228;-62
2023/12/31 11:11:34;;;;;;;5.63;5.13;;;11.00;1.00;;;;;;5075014;28;20174;-62
2023/12/31 11:14:02;;;;;;;6.65;4.88;;;10.90;1.00;;;;;;5079701;28;20189;-62
2023/12/31 11:17:01;;;;;;;5.90;4.72;;;10.90;1.00;;;;;;5095091;28;20719;-63
2023/12/31 11:19:50;;;;;;;5.40;4.90;;;10.80;1.00;;;;;;5095462;28;20166;-61
2023/12/31 11:22:51;;;;;;;5.30;4.88;;;10.80;1.00;;;;;;5095007;28;20626;-62
2023/12/31 11:25:21;;;;;;;5.15;4.75;;;10.80;1.00;;;;;;5063593;28;20208;-63
2023/12/31 11:27:50;;;;;;;5.78;4.80;;;10.80;1.00;;;;;;5094814;28;20212;-62
2023/12/31 11:30:47;;;;;;;5.78;4.90;;;10.70;1.00;;;;;;5094963;28;20184;-62
2023/12/31 11:33:21;;;;;;;6.68;5.00;;;10.70;1.00;;;;;;5094807;28;20162;-62
2023/12/31 11:35:51;;;;;;;4.95;4.55;;;10.70;1.00;;;;;;5095090;28;20188;-62
2023/12/31 11:38:18;;;;;;;5.55;4.72;;;10.70;1.00;;;;;;5094502;28;20169;-63
2023/12/31 11:40:44;;;;;;;5.15;4.65;;;10.70;1.00;;;;;;5095016;28;20539;-62
2023/12/31 11:43:15;;;;;;;6.03;4.72;;;10.60;1.00;;;;;;5094612;28;20180;-61
2023/12/31 11:45:51;;;;;;;5.53;4.90;;;10.60;1.00;;;;;;5076488;28;20219;-62
2023/12/31 11:48:19;;;;;;;5.07;4.68;;;10.50;1.00;;;;;;5094563;28;20188;-62
2023/12/31 11:50:53;;;;;;;5.10;4.60;;;10.50;1.00;;;;;;5094568;28;20177;-61
2023/12/31 11:53:22;;;;;;;5.75;3.80;;;10.50;1.00;;;;;;5094468;28;20246;-62
2023/12/31 11:55:58;;;;;;;3.78;3.47;;;10.50;1.00;;;;;;5094300;28;20204;-62
2023/12/31 11:58:27;;;;;;;3.85;3.50;;;10.50;1.00;;;;;;5094622;28;20203;-62
2023/12/31 12:00:54;;;;;;;3.80;3.57;;;10.50;1.00;;;;;;5094653;28;20162;-62
2023/12/31 12:03:20;;;;;;;3.10;2.90;;;10.40;1.00;;;;;;5094599;28;20204;-62
2023/12/31 12:05:47;;;;;;;3.63;3.33;;;10.40;1.00;;;;;;5094468;28;20568;-62
2023/12/31 12:08:14;;;;;;;3.40;3.20;;;10.40;1.00;;;;;;5093990;28;20204;-61
2023/12/31 12:10:42;;;;;;;4.05;3.65;;;10.40;1.00;;;;;;5094063;28;20665;-62
2023/12/31 12:13:08;;;;;;;4.05;3.50;;;10.40;1.00;;;;;;5094653;28;20181;-62
2023/12/31 12:15:37;;;;;;;3.33;3.13;;;10.30;1.00;;;;;;5094557;28;20271;-63
2023/12/31 12:18:32;;;;;;;3.67;3.33;;;10.30;1.00;;;;;;5093857;28;20584;-61
2023/12/31 12:20:58;;;;;;;3.83;3.45;;;10.20;1.00;;;;;;5080603;28;20212;-62
2023/12/31 12:23:25;;;;;;;4.10;3.70;;;10.20;1.00;;;;;;5093622;28;20185;-62
2023/12/31 12:25:51;;;;;;;4.07;3.63;;;10.00;1.00;;;;;;5094021;28;20650;-61
2023/12/31 12:28:17;;;;;;;3.88;3.58;;;9.90;1.00;;;;;;5093750;28;20185;-62
2023/12/31 12:30:43;;;;;;;3.87;3.53;;;9.80;1.00;;;;;;5089004;28;20608;-62
2023/12/31 12:33:11;;;;;;;3.30;3.10;;;9.70;1.00;;;;;;5076166;28;20185;-62
2023/12/31 12:35:38;;;;;;;3.67;3.40;;;9.70;1.00;;;;;;5085773;28;20261;-62
2023/12/31 12:38:05;;;;;;;4.27;3.60;;;9.60;1.00;;;;;;5074962;28;20213;-63
2023/12/31 12:40:31;;;;;;;4.43;3.57;;;9.60;60.30;;;;;;5093527;28;20247;-63
2023/12/31 12:42:59;;;;;;;3.43;3.23;;;9.60;1.00;;;;;;5093032;28;20208;-63
2023/12/31 12:45:25;;;;;;;3.70;3.47;;;9.60;1.00;;;;;;5093378;28;20192;-63
2023/12/31 12:47:51;;;;;;;3.87;3.57;;;9.60;7.00;;;;;;5091962;28;20233;-63
2023/12/31 12:50:17;;;;;;;3.47;3.17;;;9.60;1.00;;;;;;5092942;28;20197;-63
2023/12/31 12:52:43;;;;;;;3.50;3.30;;;9.50;20.80;;;;;;5093166;28;20176;-63
2023/12/31 12:55:09;;;;;;;3.57;3.27;;;9.50;70.40;;;;;;5093616;28;20189;-63
2023/12/31 12:57:35;;;;;;;3.37;3.10;;;9.40;99.90;;;;;;5093313;28;20220;-63
2023/12/31 13:00:01;;;;;;;3.60;3.30;;;9.40;99.90;;;;;;5093816;28;20250;-63
2023/12/31 13:02:26;;;;;;;3.40;3.10;;;9.30;99.90;;;;;;5093294;28;20177;-63